createdAt,value
2017-07-01T00:01:06.785Z,68.80
2017-07-01T00:03:35.052Z,68.70
2017-07-01T00:06:03.312Z,69.50
2017-07-01T00:08:30.796Z,69.40
2017-07-01T00:10:59.044Z,70.40
2017-07-01T00:13:26.544Z,70.30
2017-07-01T00:15:54.030Z,69.80
2017-07-01T00:18:21.534Z,69.50
2017-07-01T00:20:49.777Z,69.30
2017-07-01T00:23:17.288Z,69.30
2017-07-01T00:25:45.548Z,69.30
2017-07-01T00:28:13.809Z,69.00
2017-07-01T00:30:41.300Z,68.90
2017-07-01T00:33:09.552Z,68.40
2017-07-01T00:35:37.044Z,68.30
2017-07-01T00:38:04.542Z,67.70
2017-07-01T00:40:32.020Z,68.80
2017-07-01T00:42:59.500Z,67.90
2017-07-01T00:45:27.769Z,66.70
2017-07-01T00:47:56.021Z,67.20
2017-07-01T00:50:23.514Z,67.20
2017-07-01T00:52:51.780Z,67.70
2017-07-01T00:55:20.037Z,67.60
2017-07-01T00:57:47.533Z,67.60
2017-07-01T01:00:15.766Z,68.00
2017-07-01T01:02:43.265Z,67.90
2017-07-01T01:05:10.753Z,67.70
2017-07-01T01:07:38.245Z,67.80
2017-07-01T01:10:05.744Z,68.00
2017-07-01T01:12:33.216Z,68.30
2017-07-01T01:15:00.725Z,68.70
2017-07-01T01:17:28.199Z,68.60
2017-07-01T01:19:56.503Z,69.90
2017-07-01T01:22:23.980Z,69.10
2017-07-01T01:24:51.478Z,69.50
2017-07-01T01:27:18.976Z,69.80
2017-07-01T01:29:46.490Z,69.90
2017-07-01T01:32:13.981Z,69.80
2017-07-01T01:34:42.291Z,70.00
2017-07-01T01:37:09.776Z,70.00
2017-07-01T01:39:37.269Z,69.80
2017-07-01T01:42:05.533Z,70.60
2017-07-01T01:44:33.031Z,70.60
2017-07-01T01:47:00.509Z,70.50
2017-07-01T01:49:28.007Z,70.50
2017-07-01T01:51:55.484Z,70.90
2017-07-01T01:54:23.725Z,71.60
2017-07-01T01:56:51.220Z,71.60
2017-07-01T01:59:19.460Z,72.10
2017-07-01T02:01:46.951Z,72.00
2017-07-01T02:04:15.261Z,72.60
2017-07-01T02:06:42.756Z,72.50
2017-07-01T02:09:10.238Z,72.80
2017-07-01T02:11:49.593Z,72.90
2017-07-01T02:14:17.073Z,72.90
2017-07-01T02:16:50.431Z,73.50
2017-07-01T02:19:18.688Z,74.20
2017-07-01T02:21:46.968Z,74.00
2017-07-01T02:24:14.477Z,74.50
2017-07-01T02:26:41.961Z,75.00
2017-07-01T02:29:14.964Z,75.30
2017-07-01T02:31:42.444Z,75.50
2017-07-01T02:34:23.613Z,75.90
2017-07-01T02:36:52.849Z,75.90
2017-07-01T02:39:30.771Z,76.20
2017-07-01T02:41:58.241Z,76.20
2017-07-01T02:44:25.713Z,76.10
2017-07-01T02:47:07.886Z,76.10
2017-07-01T02:49:41.348Z,76.30
2017-07-01T02:52:46.193Z,76.50
2017-07-01T02:55:32.509Z,76.40
2017-07-01T02:58:00.016Z,76.50
2017-07-01T03:00:27.507Z,76.80
2017-07-01T03:02:59.032Z,77.00
2017-07-01T03:05:26.500Z,77.30
2017-07-01T03:07:54.756Z,77.70
2017-07-01T03:10:22.231Z,77.70
2017-07-01T03:12:49.706Z,77.60
2017-07-01T03:15:19.502Z,77.70
2017-07-01T03:17:46.964Z,77.50
2017-07-01T03:20:15.216Z,77.80
2017-07-01T03:22:42.694Z,77.80
2017-07-01T03:25:10.965Z,77.80
2017-07-01T03:27:38.444Z,77.80
2017-07-01T03:30:10.806Z,78.60
2017-07-01T03:32:39.058Z,77.90
2017-07-01T03:35:06.529Z,77.90
2017-07-01T03:37:54.755Z,77.90
2017-07-01T03:40:31.244Z,78.20
2017-07-01T03:43:17.020Z,77.90
2017-07-01T03:45:44.509Z,77.80
2017-07-01T03:48:13.290Z,78.70
2017-07-01T03:50:44.213Z,77.90
2017-07-01T03:53:18.161Z,77.90
2017-07-01T03:55:45.625Z,77.70
2017-07-01T03:58:15.886Z,77.70
2017-07-01T04:00:43.372Z,78.10
2017-07-01T04:03:11.690Z,78.50
2017-07-01T04:05:39.189Z,78.50
2017-07-01T04:08:06.670Z,78.20
2017-07-01T04:10:34.932Z,78.70
2017-07-01T04:13:02.400Z,78.60
2017-07-01T04:15:30.665Z,79.10
2017-07-01T04:18:03.960Z,79.00
2017-07-01T04:20:46.343Z,79.30
2017-07-01T04:23:13.833Z,79.30
2017-07-01T04:25:42.073Z,78.70
2017-07-01T04:28:09.572Z,78.70
2017-07-01T04:30:37.815Z,78.80
2017-07-01T04:33:05.304Z,78.70
2017-07-01T04:35:33.568Z,77.90
2017-07-01T04:38:01.183Z,78.60
2017-07-01T04:40:54.172Z,77.70
2017-07-01T04:43:39.242Z,77.30
2017-07-01T04:46:10.465Z,77.80
2017-07-01T04:48:57.947Z,77.10
2017-07-01T04:51:49.914Z,77.00
2017-07-01T04:54:21.981Z,77.50
2017-07-01T04:57:11.043Z,76.10
2017-07-01T04:59:39.939Z,75.50
2017-07-01T05:02:09.009Z,75.70
2017-07-01T05:04:37.361Z,76.30
2017-07-01T05:07:14.753Z,76.10
2017-07-01T05:09:46.888Z,75.40
2017-07-01T05:12:14.360Z,75.10
2017-07-01T05:14:53.888Z,76.20
2017-07-01T05:17:29.213Z,76.10
2017-07-01T05:19:56.684Z,75.50
2017-07-01T05:22:24.173Z,76.20
2017-07-01T05:24:52.433Z,75.50
2017-07-01T05:27:39.707Z,75.40
2017-07-01T05:30:07.208Z,74.20
2017-07-01T05:32:34.694Z,73.70
2017-07-01T05:35:17.808Z,73.10
2017-07-01T05:37:45.293Z,73.10
2017-07-01T05:40:12.804Z,73.60
2017-07-01T05:42:41.205Z,73.70
2017-07-01T05:45:08.684Z,73.40
2017-07-01T05:47:36.954Z,73.60
2017-07-01T05:50:05.199Z,73.70
2017-07-01T05:52:32.697Z,73.60
2017-07-01T05:55:00.176Z,74.10
2017-07-01T05:57:27.654Z,73.80
2017-07-01T05:59:55.149Z,73.70
2017-07-01T06:02:24.915Z,74.20
2017-07-01T06:04:52.418Z,74.60
2017-07-01T06:07:19.902Z,74.10
2017-07-01T06:10:24.965Z,74.10
2017-07-01T06:12:54.869Z,72.70
2017-07-01T06:15:29.264Z,72.00
2017-07-01T06:17:57.518Z,70.70
2017-07-01T06:20:36.930Z,70.60
2017-07-01T06:23:14.367Z,69.50
2017-07-01T06:26:20.141Z,69.30
2017-07-01T06:29:11.382Z,69.20
2017-07-01T06:31:50.621Z,68.80
2017-07-01T06:34:18.121Z,68.60
2017-07-01T06:36:46.372Z,68.30
2017-07-01T06:39:13.862Z,68.20
2017-07-01T06:41:43.960Z,69.60
2017-07-01T06:44:15.965Z,69.60
2017-07-01T06:46:45.302Z,69.10
2017-07-01T06:49:16.739Z,68.80
2017-07-01T06:51:44.220Z,68.80
2017-07-01T06:54:16.180Z,67.60
2017-07-01T06:56:43.686Z,67.60
2017-07-01T06:59:11.161Z,66.60
2017-07-01T07:01:38.666Z,66.20
2017-07-01T07:04:06.210Z,65.60
2017-07-01T07:06:33.721Z,65.50
2017-07-01T07:09:11.125Z,64.00
2017-07-01T07:11:38.628Z,63.60
2017-07-01T07:14:06.131Z,64.20
2017-07-01T07:16:33.648Z,64.30
2017-07-01T07:19:01.179Z,62.20
2017-07-01T07:21:28.674Z,61.40
2017-07-01T07:23:56.201Z,61.50
2017-07-01T07:26:23.680Z,61.40
2017-07-01T07:28:51.163Z,61.40
2017-07-01T07:31:19.433Z,61.00
2017-07-01T07:33:47.690Z,61.40
2017-07-01T07:36:15.197Z,61.40
2017-07-01T07:38:42.678Z,60.50
2017-07-01T07:41:10.173Z,60.10
2017-07-01T07:43:37.670Z,60.20
2017-07-01T07:46:05.158Z,59.30
2017-07-01T07:48:32.637Z,58.90
2017-07-01T07:51:00.145Z,59.30
2017-07-01T07:53:27.647Z,60.00
2017-07-01T07:55:55.156Z,59.90
2017-07-01T07:58:22.660Z,59.90
2017-07-01T08:00:50.173Z,60.10
2017-07-01T08:03:17.680Z,59.70
2017-07-01T08:05:45.174Z,59.10
2017-07-01T08:08:12.648Z,59.30
2017-07-01T08:10:40.888Z,57.20
2017-07-01T08:13:08.388Z,57.20
2017-07-01T08:15:35.872Z,58.10
2017-07-01T08:18:03.422Z,57.30
2017-07-01T08:20:30.888Z,56.80
2017-07-01T08:22:58.385Z,57.00
2017-07-01T08:25:25.856Z,56.20
2017-07-01T08:27:54.346Z,56.10
2017-07-01T08:30:22.612Z,56.30
2017-07-01T08:32:50.093Z,56.30
2017-07-01T08:35:17.605Z,56.90
2017-07-01T08:37:45.076Z,56.20
2017-07-01T08:40:12.552Z,55.00
2017-07-01T08:42:40.812Z,55.60
2017-07-01T08:45:08.303Z,55.00
2017-07-01T08:47:36.531Z,54.90
2017-07-01T08:50:04.047Z,54.70
2017-07-01T08:52:31.517Z,53.50
2017-07-01T08:54:59.016Z,53.40
2017-07-01T08:57:26.501Z,52.80
2017-07-01T08:59:54.765Z,52.40
2017-07-01T09:02:22.517Z,52.40
2017-07-01T09:04:50.029Z,53.00
2017-07-01T09:07:17.509Z,54.00
2017-07-01T09:09:45.015Z,54.60
2017-07-01T09:12:12.558Z,54.60
2017-07-01T09:14:40.040Z,55.30
2017-07-01T09:17:08.287Z,55.60
2017-07-01T09:19:35.786Z,55.50
2017-07-01T09:22:04.016Z,56.00
2017-07-01T09:24:31.501Z,56.00
2017-07-01T09:26:59.761Z,55.60
2017-07-01T09:29:28.012Z,55.20
2017-07-01T09:31:55.517Z,55.20
2017-07-01T09:34:23.009Z,55.40
2017-07-01T09:36:50.525Z,56.30
2017-07-01T09:39:18.765Z,56.40
2017-07-01T09:41:46.241Z,56.40
2017-07-01T09:44:13.744Z,56.70
2017-07-01T09:46:41.249Z,56.60
2017-07-01T09:49:08.726Z,56.80
2017-07-01T09:51:36.991Z,56.10
2017-07-01T09:54:04.467Z,56.10
2017-07-01T09:56:32.730Z,53.90
2017-07-01T09:59:00.222Z,53.90
2017-07-01T10:01:27.723Z,53.80
2017-07-01T10:03:55.218Z,54.30
2017-07-01T10:06:23.462Z,54.70
2017-07-01T10:08:50.951Z,54.60
2017-07-01T10:11:19.204Z,52.90
2017-07-01T10:13:46.708Z,52.90
2017-07-01T10:16:14.192Z,53.00
2017-07-01T10:18:41.675Z,54.00
2017-07-01T10:21:09.165Z,54.70
2017-07-01T10:23:37.413Z,56.50
2017-07-01T10:26:04.906Z,56.40
2017-07-01T10:28:33.146Z,56.20
2017-07-01T10:31:00.644Z,56.30
2017-07-01T10:33:28.116Z,56.60
2017-07-01T10:35:55.604Z,56.30
2017-07-01T10:38:23.101Z,56.40
2017-07-01T10:40:51.369Z,57.20
2017-07-01T10:43:18.864Z,57.20
2017-07-01T10:45:46.392Z,56.60
2017-07-01T10:48:13.878Z,56.60
2017-07-01T10:50:41.388Z,56.50
2017-07-01T10:53:08.864Z,56.70
2017-07-01T10:55:36.378Z,55.40
2017-07-01T10:58:03.857Z,55.50
2017-07-01T11:00:31.331Z,56.40
2017-07-01T11:02:58.820Z,55.70
2017-07-01T11:05:26.297Z,55.70
2017-07-01T11:07:53.793Z,55.00
2017-07-01T11:10:21.279Z,54.50
2017-07-01T11:12:49.554Z,54.50
2017-07-01T11:15:17.027Z,53.80
2017-07-01T11:17:44.504Z,53.60
2017-07-01T11:20:12.010Z,53.10
2017-07-01T11:22:39.488Z,54.30
2017-07-01T11:25:07.776Z,54.90
2017-07-01T11:27:36.072Z,55.40
2017-07-01T11:30:03.532Z,55.40
2017-07-01T11:32:31.048Z,55.40
2017-07-01T11:34:58.522Z,54.60
2017-07-01T11:37:26.777Z,55.40
2017-07-01T11:39:54.272Z,55.40
2017-07-01T11:42:21.747Z,55.10
2017-07-01T11:44:49.214Z,55.50
2017-07-01T11:47:16.713Z,55.30
2017-07-01T11:49:44.189Z,55.30
2017-07-01T11:52:12.461Z,55.80
2017-07-01T11:54:40.712Z,55.40
2017-07-01T11:57:08.208Z,55.40
2017-07-01T11:59:36.458Z,55.80
2017-07-01T12:02:03.938Z,55.70
2017-07-01T12:04:32.199Z,55.00
2017-07-01T12:06:59.708Z,54.90
2017-07-01T12:09:27.267Z,55.10
2017-07-01T12:11:54.770Z,54.50
2017-07-01T12:14:22.267Z,53.00
2017-07-01T12:16:49.757Z,53.70
2017-07-01T12:19:17.301Z,53.40
2017-07-01T12:21:44.789Z,53.40
2017-07-01T12:24:12.322Z,52.20
2017-07-01T12:26:39.826Z,52.50
2017-07-01T12:29:07.301Z,54.20
2017-07-01T12:31:35.565Z,54.70
2017-07-01T12:34:03.843Z,55.30
2017-07-01T12:36:31.320Z,55.40
2017-07-01T12:38:59.590Z,56.50
2017-07-01T12:41:27.853Z,56.40
2017-07-01T12:43:55.333Z,56.40
2017-07-01T12:46:22.826Z,55.90
2017-07-01T12:48:50.337Z,57.00
2017-07-01T12:51:18.602Z,56.40
2017-07-01T12:53:46.859Z,56.80
2017-07-01T12:56:14.361Z,56.20
2017-07-01T12:58:41.841Z,55.70
2017-07-01T13:01:09.360Z,56.50
2017-07-01T13:03:37.609Z,55.00
2017-07-01T13:06:05.086Z,55.00
2017-07-01T13:08:32.585Z,54.50
2017-07-01T13:11:00.065Z,53.90
2017-07-01T13:13:27.573Z,54.10
2017-07-01T13:15:55.828Z,53.90
2017-07-01T13:18:23.300Z,53.80
2017-07-01T13:20:51.568Z,53.70
2017-07-01T13:23:19.040Z,53.60
2017-07-01T13:25:47.300Z,52.80
2017-07-01T13:28:14.787Z,52.80
2017-07-01T13:30:42.280Z,53.80
2017-07-01T13:33:09.780Z,53.20
2017-07-01T13:35:37.288Z,54.10
2017-07-01T13:38:04.790Z,54.90
2017-07-01T13:40:32.265Z,54.60
2017-07-01T13:43:00.527Z,55.70
2017-07-01T13:45:28.024Z,55.60
2017-07-01T13:47:55.524Z,55.10
2017-07-01T13:50:23.016Z,55.60
2017-07-01T13:52:51.299Z,53.50
2017-07-01T13:55:19.530Z,54.10
2017-07-01T13:57:47.069Z,54.00
2017-07-01T14:00:14.585Z,54.00
2017-07-01T14:02:42.853Z,53.30
2017-07-01T14:05:10.356Z,53.70
2017-07-01T14:07:37.871Z,54.70
2017-07-01T14:10:05.356Z,54.70
2017-07-01T14:12:32.869Z,54.70
2017-07-01T14:15:00.393Z,55.70
2017-07-01T14:17:27.900Z,57.10
2017-07-01T14:19:55.395Z,57.90
2017-07-01T14:22:22.901Z,57.40
2017-07-01T14:24:50.375Z,56.80
2017-07-01T14:27:17.905Z,56.70
2017-07-01T14:29:45.380Z,57.70
2017-07-01T14:32:12.867Z,58.30
2017-07-01T14:34:41.170Z,59.00
2017-07-01T14:37:08.675Z,59.00
2017-07-01T14:39:36.189Z,59.00
2017-07-01T14:42:03.675Z,59.60
2017-07-01T14:44:31.173Z,59.90
2017-07-01T14:46:58.649Z,59.10
2017-07-01T14:49:26.904Z,59.60
2017-07-01T14:51:54.395Z,59.60
2017-07-01T14:54:21.872Z,59.00
2017-07-01T14:56:49.368Z,58.30
2017-07-01T14:59:16.841Z,57.70
2017-07-01T15:01:45.114Z,58.00
2017-07-01T15:04:12.978Z,57.90
2017-07-01T15:06:40.459Z,57.70
2017-07-01T15:09:08.721Z,57.20
2017-07-01T15:11:36.999Z,58.90
2017-07-01T15:14:05.277Z,59.30
2017-07-01T15:16:32.780Z,59.30
2017-07-01T15:19:00.264Z,59.40
2017-07-01T15:21:27.756Z,58.60
2017-07-01T15:23:56.038Z,58.00
2017-07-01T15:26:24.268Z,58.00
2017-07-01T15:28:51.755Z,58.00
2017-07-01T15:31:19.588Z,57.80
2017-07-01T15:33:47.073Z,57.60
2017-07-01T15:36:14.564Z,58.10
2017-07-01T15:38:42.071Z,58.00
2017-07-01T15:41:09.569Z,58.00
2017-07-01T15:43:37.056Z,57.50
2017-07-01T15:46:04.553Z,57.10
2017-07-01T15:48:32.052Z,57.10
2017-07-01T15:51:00.298Z,57.70
2017-07-01T15:53:27.798Z,57.70
2017-07-01T15:55:55.284Z,58.00
2017-07-01T15:58:22.785Z,58.50
2017-07-01T16:01:02.906Z,58.60
2017-07-01T16:03:30.408Z,58.50
2017-07-01T16:05:58.665Z,58.80
2017-07-01T16:08:26.133Z,58.80
2017-07-01T16:10:54.394Z,59.20
2017-07-01T16:13:21.877Z,59.20
2017-07-01T16:15:49.396Z,59.50
2017-07-01T16:18:16.873Z,59.70
2017-07-01T16:20:44.353Z,60.00
2017-07-01T16:23:12.920Z,60.80
2017-07-01T16:25:42.422Z,60.70
2017-07-01T16:28:09.917Z,60.80
2017-07-01T16:30:37.397Z,61.10
2017-07-01T16:33:04.908Z,61.50
2017-07-01T16:35:33.149Z,61.40
2017-07-01T16:38:00.625Z,61.30
2017-07-01T16:40:28.218Z,62.30
2017-07-01T16:42:56.455Z,61.60
2017-07-01T16:45:23.948Z,61.70
2017-07-01T16:47:52.217Z,62.50
2017-07-01T16:50:20.488Z,62.50
2017-07-01T16:52:48.777Z,61.60
2017-07-01T16:55:17.024Z,62.00
2017-07-01T16:57:44.535Z,61.90
2017-07-01T17:00:12.018Z,62.60
2017-07-01T17:02:39.513Z,62.00
2017-07-01T17:05:07.806Z,62.10
2017-07-01T17:07:36.057Z,62.00
2017-07-01T17:10:03.570Z,61.90
2017-07-01T17:12:31.048Z,62.60
2017-07-01T17:14:58.556Z,62.10
2017-07-01T17:17:26.800Z,62.70
2017-07-01T17:19:54.285Z,62.70
2017-07-01T17:22:22.545Z,62.80
2017-07-01T17:24:50.022Z,62.80
2017-07-01T17:27:18.304Z,63.20
2017-07-01T17:29:45.812Z,63.20
2017-07-01T17:32:13.305Z,63.10
2017-07-01T17:34:41.673Z,63.40
2017-07-01T17:37:09.175Z,63.40
2017-07-01T17:39:36.661Z,63.30
2017-07-01T17:42:04.152Z,64.00
2017-07-01T17:44:31.628Z,63.80
2017-07-01T17:46:59.923Z,64.90
2017-07-01T17:49:27.437Z,65.00
2017-07-01T17:51:54.944Z,64.70
2017-07-01T17:54:22.417Z,64.90
2017-07-01T17:56:49.907Z,64.60
2017-07-01T17:59:17.389Z,64.40
2017-07-01T18:01:45.643Z,65.50
2017-07-01T18:06:50.689Z,66.80
2017-07-01T18:09:18.188Z,66.00
2017-07-01T18:11:45.679Z,65.60
2017-07-01T18:14:13.172Z,67.00
2017-07-01T18:16:40.702Z,69.00
2017-07-01T18:19:08.256Z,68.90
2017-07-01T18:21:35.762Z,69.80
2017-07-01T18:24:04.024Z,71.50
2017-07-01T18:26:31.526Z,70.70
2017-07-01T18:28:59.015Z,70.70
2017-07-01T18:31:26.710Z,70.80
2017-07-01T18:33:54.331Z,71.30
2017-07-01T18:36:21.840Z,72.50
2017-07-01T18:38:50.346Z,74.40
2017-07-01T18:41:17.930Z,74.40
2017-07-01T18:43:45.428Z,74.30
2017-07-01T18:46:12.951Z,74.90
2017-07-01T18:48:42.290Z,74.00
2017-07-01T18:51:09.834Z,75.80
2017-07-01T18:53:37.344Z,76.50
2017-07-01T18:56:04.838Z,75.60
2017-07-01T18:58:32.374Z,76.80
2017-07-01T19:00:59.875Z,77.10
2017-07-01T19:03:27.377Z,78.80
2017-07-01T19:05:54.866Z,79.00
2017-07-01T19:08:22.340Z,79.10
2017-07-01T19:10:49.848Z,80.80
2017-07-01T19:13:17.330Z,79.30
2017-07-01T19:15:44.841Z,79.60
2017-07-01T19:18:13.123Z,81.70
2017-07-01T19:20:41.363Z,80.60
2017-07-01T19:23:08.880Z,80.50
2017-07-01T19:25:36.362Z,80.20
2017-07-01T19:28:03.912Z,81.30
2017-07-01T19:30:31.406Z,80.90
2017-07-01T19:32:58.941Z,80.80
2017-07-01T19:35:26.432Z,81.50
2017-07-01T19:37:53.939Z,81.30
2017-07-01T19:40:21.461Z,83.30
2017-07-01T19:42:49.548Z,81.40
2017-07-01T19:45:17.866Z,83.40
2017-07-01T19:47:45.365Z,83.20
2017-07-01T19:50:12.857Z,82.40
2017-07-01T19:52:40.360Z,83.40
2017-07-01T19:55:07.870Z,83.90
2017-07-01T19:57:35.364Z,84.00
2017-07-01T20:00:02.869Z,84.00
2017-07-01T20:02:31.193Z,84.80
2017-07-01T20:04:58.702Z,84.80
2017-07-01T20:07:26.958Z,86.00
2017-07-01T20:09:54.487Z,85.40
2017-07-01T20:12:21.985Z,85.60
2017-07-01T20:14:49.456Z,86.70
2017-07-01T20:17:17.711Z,87.00
2017-07-01T20:19:45.218Z,87.40
2017-07-01T20:22:12.799Z,87.50
2017-07-01T20:24:40.296Z,87.80
2017-07-01T20:27:07.790Z,88.60
2017-07-01T20:29:35.301Z,88.60
2017-07-01T20:32:02.789Z,88.70
2017-07-01T20:34:31.044Z,89.20
2017-07-01T20:36:58.545Z,89.20
2017-07-01T20:39:26.024Z,89.10
2017-07-01T20:41:53.524Z,88.80
2017-07-01T20:44:21.001Z,89.40
2017-07-01T20:46:49.248Z,90.00
2017-07-01T20:49:16.750Z,90.00
2017-07-01T20:51:44.233Z,90.30
2017-07-01T20:54:11.761Z,90.50
2017-07-01T20:56:40.013Z,90.00
2017-07-01T20:59:07.481Z,90.00
2017-07-01T21:01:35.754Z,90.20
2017-07-01T21:04:03.246Z,90.10
2017-07-01T21:06:30.742Z,90.20
2017-07-01T21:08:58.279Z,90.50
2017-07-01T21:11:25.792Z,90.60
2017-07-01T21:13:54.035Z,90.70
2017-07-01T21:16:21.532Z,90.60
2017-07-01T21:18:49.797Z,91.10
2017-07-01T21:21:18.045Z,91.70
2017-07-01T21:23:45.579Z,91.30
2017-07-01T21:26:13.060Z,91.40
2017-07-01T21:28:40.529Z,91.40
2017-07-01T21:31:08.058Z,91.70
2017-07-01T21:33:35.574Z,91.60
2017-07-01T21:36:03.821Z,92.00
2017-07-01T21:38:31.300Z,91.70
2017-07-01T21:40:58.796Z,91.80
2017-07-01T21:43:26.289Z,92.00
2017-07-01T21:45:53.789Z,92.10
2017-07-01T21:48:22.084Z,92.20
2017-07-01T21:50:49.588Z,92.10
2017-07-01T21:53:17.070Z,92.00
2017-07-01T21:55:44.545Z,92.10
2017-07-01T21:58:12.828Z,92.10
2017-07-01T22:00:40.332Z,92.10
2017-07-01T22:03:07.824Z,92.20
2017-07-01T22:05:36.068Z,92.10
2017-07-01T22:08:03.549Z,92.10
2017-07-01T22:10:31.054Z,92.10
2017-07-01T22:12:58.546Z,92.10
2017-07-01T22:15:26.057Z,91.90
2017-07-01T22:17:53.529Z,92.00
2017-07-01T22:20:21.030Z,92.10
2017-07-01T22:22:48.588Z,92.10
2017-07-01T22:25:16.098Z,91.90
2017-07-01T22:27:43.580Z,92.10
2017-07-01T22:30:11.057Z,92.10
2017-07-01T22:32:38.588Z,92.10
2017-07-01T22:35:06.068Z,92.30
2017-07-01T22:37:33.548Z,92.00
2017-07-01T22:40:01.041Z,92.10
2017-07-01T22:42:28.526Z,92.30
2017-07-01T22:44:56.038Z,92.30
2017-07-01T22:47:24.294Z,92.00
2017-07-01T22:49:51.780Z,92.00
2017-07-01T22:52:20.028Z,92.10
2017-07-01T22:54:47.504Z,92.10
2017-07-01T22:57:15.772Z,91.70
2017-07-01T22:59:43.265Z,91.70
2017-07-01T23:02:10.763Z,92.40
2017-07-01T23:04:38.241Z,92.10
2017-07-01T23:07:05.744Z,92.20
2017-07-01T23:09:33.256Z,92.30
2017-07-01T23:12:00.733Z,92.20
2017-07-01T23:14:28.246Z,92.50
2017-07-01T23:16:55.729Z,92.20
2017-07-01T23:19:23.208Z,92.60
2017-07-01T23:21:51.468Z,92.60
2017-07-01T23:24:18.945Z,92.60
2017-07-01T23:26:47.213Z,92.70
2017-07-01T23:29:14.682Z,92.50
2017-07-01T23:31:42.950Z,92.40
2017-07-01T23:34:10.421Z,92.40
2017-07-01T23:36:38.681Z,92.40
2017-07-01T23:39:06.170Z,92.40
2017-07-01T23:41:33.673Z,92.70
2017-07-01T23:44:01.172Z,92.50
2017-07-01T23:46:29.408Z,92.50
2017-07-01T23:48:56.899Z,92.40
2017-07-01T23:51:25.140Z,92.60
2017-07-01T23:53:52.625Z,92.60
2017-07-01T23:56:20.895Z,93.20
2017-07-01T23:58:48.373Z,93.10
